Time,TemperatureF,DewpointF,PressureIn,WindDirection,WindDirectionDegrees,WindSpeedMPH,WindSpeedGustMPH,Humidity,HourlyPrecipIn,Conditions,Clouds,dailyrainin,SoftwareType,DateUTC
2013-12-10 00:00:00,40.1,38.5,30.39,North,-999,0.0,0.0,94,0.00,,,-99.99,FreeWX 2.05,2013-12-10 00:00:00,
2013-12-10 00:10:00,39.9,38.7,30.39,North,-999,0.0,3.6,95,0.00,,,-99.99,FreeWX 2.05,2013-12-10 00:10:00,
2013-12-10 00:20:00,39.9,38.7,30.39,North,-999,0.0,3.1,95,0.00,,,-99.99,FreeWX 2.05,2013-12-10 00:20:00,
2013-12-10 00:30:00,39.7,38.5,30.39,North,-999,0.0,4.5,95,0.00,,,-99.99,FreeWX 2.05,2013-12-10 00:30:00,
2013-12-10 00:35:00,39.7,38.5,30.39,North,-999,0.0,3.6,95,0.00,,,-99.99,FreeWX 2.05,2013-12-10 00:35:00,
2013-12-10 00:40:00,39.6,38.3,30.39,North,-999,0.0,3.6,95,0.00,,,-99.99,FreeWX 2.05,2013-12-10 00:40:00,
2013-12-10 00:50:00,39.6,38.3,30.39,North,-999,0.0,0.0,95,0.00,,,-99.99,FreeWX 2.05,2013-12-10 00:50:00,
2013-12-10 00:55:00,39.4,38.1,30.39,North,-999,0.0,0.0,95,0.00,,,-99.99,FreeWX 2.05,2013-12-10 00:55:00,
2013-12-10 01:00:00,39.4,38.1,30.39,North,-999,0.0,0.0,95,0.00,,,-99.99,FreeWX 2.05,2013-12-10 01:00:00,
2013-12-10 01:05:00,39.2,37.9,30.39,North,-999,0.0,0.0,95,0.00,,,-99.99,FreeWX 2.05,2013-12-10 01:05:00,
2013-12-10 01:15:00,39.0,37.8,30.39,North,-999,0.0,4.0,95,0.00,,,-99.99,FreeWX 2.05,2013-12-10 01:15:00,
2013-12-10 01:20:00,38.8,37.6,30.39,North,-999,0.0,3.6,95,0.00,,,-99.99,FreeWX 2.05,2013-12-10 01:20:00,
2013-12-10 01:25:00,38.8,37.6,30.39,North,-999,0.0,0.0,95,0.00,,,-99.99,FreeWX 2.05,2013-12-10 01:25:00,
2013-12-10 01:30:00,38.7,37.4,30.39,North,-999,0.0,0.0,95,0.00,,,-99.99,FreeWX 2.05,2013-12-10 01:30:00,
2013-12-10 01:35:00,38.5,37.2,30.39,North,-999,0.0,0.0,95,0.00,,,-99.99,FreeWX 2.05,2013-12-10 01:35:00,
2013-12-10 01:45:00,38.7,37.4,30.39,North,-999,0.0,0.0,95,0.00,,,-99.99,FreeWX 2.05,2013-12-10 01:45:00,
2013-12-10 01:50:00,38.3,37.0,30.39,North,-999,0.0,0.0,95,0.00,,,-99.99,FreeWX 2.05,2013-12-10 01:50:00,
2013-12-10 01:55:00,38.1,36.9,30.39,North,-999,0.0,0.0,95,0.00,,,-99.99,FreeWX 2.05,2013-12-10 01:55:00,
2013-12-10 02:05:00,38.1,37.0,30.39,North,-999,0.0,0.0,96,0.00,,,-99.99,FreeWX 2.05,2013-12-10 02:05:00,
2013-12-10 02:10:00,38.1,37.0,30.39,North,-999,0.0,0.0,96,0.00,,,-99.99,FreeWX 2.05,2013-12-10 02:10:00,
2013-12-10 02:20:00,37.9,36.9,30.39,North,-999,0.0,0.0,96,0.00,,,-99.99,FreeWX 2.05,2013-12-10 02:20:00,
2013-12-10 02:25:00,37.9,36.9,30.39,North,-999,0.0,0.0,96,0.00,,,-99.99,FreeWX 2.05,2013-12-10 02:25:00,
2013-12-10 02:30:00,37.6,36.3,30.41,North,-999,0.0,0.0,95,0.00,,,-99.99,FreeWX 2.05,2013-12-10 02:30:00,
2013-12-10 02:35:00,37.6,36.3,30.41,North,-999,0.0,0.0,95,0.00,,,-99.99,FreeWX 2.05,2013-12-10 02:35:00,
2013-12-10 02:40:00,37.4,36.1,30.41,North,-999,0.0,0.0,95,0.00,,,-99.99,FreeWX 2.05,2013-12-10 02:40:00,
2013-12-10 02:45:00,37.2,36.0,30.39,North,-999,0.0,0.0,95,0.00,,,-99.99,FreeWX 2.05,2013-12-10 02:45:00,
2013-12-10 02:55:00,36.9,35.6,30.39,North,-999,0.0,0.0,95,0.00,,,-99.99,FreeWX 2.05,2013-12-10 02:55:00,
2013-12-10 03:00:00,36.5,35.2,30.39,North,-999,0.0,0.0,95,0.00,,,-99.99,FreeWX 2.05,2013-12-10 03:00:00,
2013-12-10 03:05:00,36.1,34.9,30.39,North,-999,0.0,0.0,95,0.00,,,-99.99,FreeWX 2.05,2013-12-10 03:05:00,
2013-12-10 03:15:00,36.0,34.9,30.41,North,-999,0.0,0.0,96,0.00,,,-99.99,FreeWX 2.05,2013-12-10 03:15:00,
2013-12-10 03:25:00,36.0,34.9,30.41,North,-999,0.0,0.0,96,0.00,,,-99.99,FreeWX 2.05,2013-12-10 03:25:00,
2013-12-10 03:30:00,36.0,34.9,30.39,North,-999,0.0,0.0,96,0.00,,,-99.99,FreeWX 2.05,2013-12-10 03:30:00,
2013-12-10 03:35:00,36.0,34.9,30.39,North,-999,0.0,0.0,96,0.00,,,-99.99,FreeWX 2.05,2013-12-10 03:35:00,
2013-12-10 03:45:00,35.4,34.3,30.39,North,-999,0.0,0.0,96,0.00,,,-99.99,FreeWX 2.05,2013-12-10 03:45:00,
2013-12-10 03:50:00,35.4,34.3,30.39,North,-999,0.0,0.0,96,0.00,,,-99.99,FreeWX 2.05,2013-12-10 03:50:00,
2013-12-10 04:00:00,35.6,34.5,30.39,North,-999,0.0,0.0,96,0.00,,,-99.99,FreeWX 2.05,2013-12-10 04:00:00,
2013-12-10 04:05:00,35.6,34.5,30.39,North,-999,0.0,0.0,96,0.00,,,-99.99,FreeWX 2.05,2013-12-10 04:05:00,
2013-12-10 04:10:00,35.8,34.7,30.39,North,-999,0.0,0.0,96,0.00,,,-99.99,FreeWX 2.05,2013-12-10 04:10:00,
2013-12-10 04:20:00,35.6,34.5,30.39,North,-999,0.0,0.0,96,0.00,,,-99.99,FreeWX 2.05,2013-12-10 04:20:00,
2013-12-10 04:25:00,35.6,34.5,30.39,North,-999,0.0,0.0,96,0.00,,,-99.99,FreeWX 2.05,2013-12-10 04:25:00,
2013-12-10 04:35:00,35.6,34.5,30.39,North,-999,0.0,0.0,96,0.00,,,-99.99,FreeWX 2.05,2013-12-10 04:35:00,
2013-12-10 04:45:00,35.4,34.3,30.39,North,-999,0.0,0.0,96,0.00,,,-99.99,FreeWX 2.05,2013-12-10 04:45:00,
2013-12-10 04:55:00,35.2,34.2,30.39,North,-999,0.0,0.0,96,0.00,,,-99.99,FreeWX 2.05,2013-12-10 04:55:00,
2013-12-10 05:00:00,35.2,34.2,30.39,North,-999,0.0,0.0,96,0.00,,,-99.99,FreeWX 2.05,2013-12-10 05:00:00,
2013-12-10 05:05:00,35.2,34.2,30.39,North,-999,0.0,0.0,96,0.00,,,-99.99,FreeWX 2.05,2013-12-10 05:05:00,
2013-12-10 05:10:00,35.2,34.2,30.39,North,-999,0.0,0.0,96,0.00,,,-99.99,FreeWX 2.05,2013-12-10 05:10:00,
2013-12-10 05:15:00,35.4,34.7,30.39,North,-999,0.0,0.0,97,0.00,,,-99.99,FreeWX 2.05,2013-12-10 05:15:00,
2013-12-10 05:20:00,35.6,34.9,30.39,North,-999,0.0,0.0,97,0.00,,,-99.99,FreeWX 2.05,2013-12-10 05:20:00,
2013-12-10 05:25:00,35.4,34.7,30.39,North,-999,0.0,0.0,97,0.00,,,-99.99,FreeWX 2.05,2013-12-10 05:25:00,
2013-12-10 05:30:00,35.4,34.7,30.41,North,-999,0.0,0.0,97,0.00,,,-99.99,FreeWX 2.05,2013-12-10 05:30:00,
2013-12-10 05:35:00,35.2,34.5,30.41,North,-999,0.0,0.0,97,0.00,,,-99.99,FreeWX 2.05,2013-12-10 05:35:00,
2013-12-10 05:40:00,35.4,34.7,30.41,North,-999,0.0,0.0,97,0.00,,,-99.99,FreeWX 2.05,2013-12-10 05:40:00,
2013-12-10 05:50:00,35.4,34.7,30.41,North,-999,0.0,0.0,97,0.00,,,-99.99,FreeWX 2.05,2013-12-10 05:50:00,
2013-12-10 06:00:00,35.8,35.1,30.41,North,-999,0.0,0.0,97,0.00,,,-99.99,FreeWX 2.05,2013-12-10 06:00:00,
2013-12-10 06:05:00,35.8,35.1,30.41,North,-999,0.0,0.0,97,0.00,,,-99.99,FreeWX 2.05,2013-12-10 06:05:00,
2013-12-10 06:10:00,35.8,35.1,30.41,North,-999,0.0,0.0,97,0.00,,,-99.99,FreeWX 2.05,2013-12-10 06:10:00,
2013-12-10 06:15:00,35.6,34.9,30.41,North,-999,0.0,0.0,97,0.00,,,-99.99,FreeWX 2.05,2013-12-10 06:15:00,
2013-12-10 06:25:00,35.6,34.9,30.41,North,-999,0.0,0.0,97,0.00,,,-99.99,FreeWX 2.05,2013-12-10 06:25:00,
2013-12-10 06:30:00,35.6,34.9,30.41,North,-999,0.0,0.0,97,0.00,,,-99.99,FreeWX 2.05,2013-12-10 06:30:00,
2013-12-10 06:35:00,35.6,34.9,30.41,North,-999,0.0,0.0,97,0.00,,,-99.99,FreeWX 2.05,2013-12-10 06:35:00,
2013-12-10 06:40:00,35.6,34.9,30.41,North,-999,0.0,0.0,97,0.00,,,-99.99,FreeWX 2.05,2013-12-10 06:40:00,
2013-12-10 06:45:00,35.6,34.9,30.41,North,-999,0.0,0.0,97,0.00,,,-99.99,FreeWX 2.05,2013-12-10 06:45:00,
2013-12-10 06:55:00,35.4,34.7,30.41,North,-999,0.0,0.0,97,0.00,,,-99.99,FreeWX 2.05,2013-12-10 06:55:00,
2013-12-10 07:00:00,35.4,34.7,30.41,North,-999,0.0,0.0,97,0.00,,,-99.99,FreeWX 2.05,2013-12-10 07:00:00,
2013-12-10 07:05:00,35.2,34.5,30.41,North,-999,0.0,0.0,97,0.00,,,-99.99,FreeWX 2.05,2013-12-10 07:05:00,
2013-12-10 07:15:00,35.1,34.3,30.41,North,-999,0.0,0.0,97,0.00,,,-99.99,FreeWX 2.05,2013-12-10 07:15:00,
2013-12-10 07:20:00,35.1,34.3,30.41,North,-999,0.0,0.0,97,0.00,,,-99.99,FreeWX 2.05,2013-12-10 07:20:00,
2013-12-10 07:30:00,35.1,34.3,30.41,North,-999,0.0,0.0,97,0.00,,,-99.99,FreeWX 2.05,2013-12-10 07:30:00,
2013-12-10 07:35:00,35.1,34.3,30.41,North,-999,0.0,0.0,97,0.00,,,-99.99,FreeWX 2.05,2013-12-10 07:35:00,
2013-12-10 07:40:00,35.1,34.3,30.41,North,-999,0.0,0.0,97,0.00,,,-99.99,FreeWX 2.05,2013-12-10 07:40:00,
2013-12-10 07:50:00,35.2,34.5,30.41,North,-999,0.0,0.0,97,0.00,,,-99.99,FreeWX 2.05,2013-12-10 07:50:00,
2013-12-10 08:00:00,35.4,35.4,30.41,North,-999,0.0,0.0,100,0.00,,,-99.99,FreeWX 2.05,2013-12-10 08:00:00,
2013-12-10 08:10:00,35.6,35.6,30.41,North,-999,0.0,0.0,100,0.00,,,-99.99,FreeWX 2.05,2013-12-10 08:10:00,
2013-12-10 08:15:00,35.6,35.6,30.41,North,-999,0.0,0.0,100,0.00,,,-99.99,FreeWX 2.05,2013-12-10 08:15:00,
2013-12-10 08:25:00,35.8,35.8,30.41,North,-999,0.0,0.0,100,0.00,,,-99.99,FreeWX 2.05,2013-12-10 08:25:00,
2013-12-10 08:31:00,36.1,36.1,30.41,North,-999,0.0,0.0,100,0.00,,,-99.99,FreeWX 2.05,2013-12-10 08:31:00,
2013-12-10 08:42:00,36.5,36.5,30.41,North,-999,0.0,0.0,100,0.00,,,-99.99,FreeWX 2.05,2013-12-10 08:42:00,
2013-12-10 08:50:00,36.7,36.7,30.41,North,-999,0.0,0.0,100,0.00,,,-99.99,FreeWX 2.05,2013-12-10 08:50:00,
2013-12-10 08:55:00,36.7,36.7,30.41,North,-999,0.0,0.0,100,0.00,,,-99.99,FreeWX 2.05,2013-12-10 08:55:00,
2013-12-10 09:00:00,36.9,36.9,30.44,North,-999,0.0,0.0,100,0.00,,,-99.99,FreeWX 2.05,2013-12-10 09:00:00,
2013-12-10 09:10:00,37.0,37.0,30.44,North,-999,0.0,0.0,100,0.00,,,-99.99,FreeWX 2.05,2013-12-10 09:10:00,
2013-12-10 09:20:00,37.4,37.4,30.44,North,-999,0.0,0.0,100,0.00,,,-99.99,FreeWX 2.05,2013-12-10 09:20:00,
2013-12-10 09:25:00,37.8,37.8,30.44,North,-999,0.0,0.0,100,0.00,,,-99.99,FreeWX 2.05,2013-12-10 09:25:00,
2013-12-10 09:35:00,38.1,38.1,30.44,North,-999,0.0,0.0,100,0.00,,,-99.99,FreeWX 2.05,2013-12-10 09:35:00,
2013-12-10 09:45:00,38.5,38.5,30.44,North,-999,0.0,0.0,100,0.00,,,-99.99,FreeWX 2.05,2013-12-10 09:45:00,
2013-12-10 09:55:00,39.0,39.0,30.44,North,-999,0.0,0.0,100,0.00,,,-99.99,FreeWX 2.05,2013-12-10 09:55:00,
2013-12-10 10:00:00,39.2,39.2,30.44,North,-999,0.0,0.0,100,0.00,,,-99.99,FreeWX 2.05,2013-12-10 10:00:00,
2013-12-10 10:05:00,39.4,39.4,30.44,North,-999,0.0,0.0,100,0.00,,,-99.99,FreeWX 2.05,2013-12-10 10:05:00,
2013-12-10 10:10:00,39.7,39.7,30.44,North,-999,0.0,0.0,100,0.00,,,-99.99,FreeWX 2.05,2013-12-10 10:10:00,
2013-12-10 10:20:00,40.3,40.3,30.44,North,-999,0.0,0.0,100,0.00,,,-99.99,FreeWX 2.05,2013-12-10 10:20:00,
2013-12-10 10:30:00,41.0,41.0,30.44,North,-999,0.0,0.0,100,0.00,,,-99.99,FreeWX 2.05,2013-12-10 10:30:00,
2013-12-10 10:40:00,41.4,41.4,30.44,North,-999,0.0,0.0,100,0.00,,,-99.99,FreeWX 2.05,2013-12-10 10:40:00,
2013-12-10 10:45:00,41.7,41.7,30.44,North,-999,0.0,0.0,100,0.00,,,-99.99,FreeWX 2.05,2013-12-10 10:45:00,
2013-12-10 10:55:00,42.4,42.4,30.44,North,-999,0.0,0.0,100,0.00,,,-99.99,FreeWX 2.05,2013-12-10 10:55:00,
2013-12-10 11:00:00,42.8,42.8,30.44,North,-999,0.0,3.6,100,0.00,,,-99.99,FreeWX 2.05,2013-12-10 11:00:00,
2013-12-10 11:05:00,43.0,43.0,30.44,North,-999,0.0,4.0,100,0.00,,,-99.99,FreeWX 2.05,2013-12-10 11:05:00,
2013-12-10 11:10:00,43.2,43.2,30.44,North,-999,0.0,3.6,100,0.00,,,-99.99,FreeWX 2.05,2013-12-10 11:10:00,
2013-12-10 11:15:00,43.3,43.3,30.44,North,-999,0.0,4.5,100,0.00,,,-99.99,FreeWX 2.05,2013-12-10 11:15:00,
2013-12-10 11:25:00,43.9,43.9,30.44,SSE,151,1.0,4.9,100,0.00,,,-99.99,FreeWX 2.05,2013-12-10 11:25:00,
2013-12-10 11:35:00,44.4,44.4,30.44,SSE,154,1.0,4.9,100,0.00,,,-99.99,FreeWX 2.05,2013-12-10 11:35:00,
2013-12-10 11:40:00,44.6,44.6,30.44,SSE,154,1.0,4.5,100,0.00,,,-99.99,FreeWX 2.05,2013-12-10 11:40:00,
2013-12-10 11:45:00,44.8,44.8,30.44,SSE,151,1.0,4.0,100,0.00,,,-99.99,FreeWX 2.05,2013-12-10 11:45:00,
2013-12-10 11:55:00,45.1,45.1,30.44,North,-999,0.0,4.5,100,0.00,,,-99.99,FreeWX 2.05,2013-12-10 11:55:00,
2013-12-10 12:00:00,45.3,45.3,30.44,North,-999,0.0,4.0,100,0.00,,,-99.99,FreeWX 2.05,2013-12-10 12:00:00,
2013-12-10 12:05:00,45.5,45.5,30.44,North,-999,0.0,4.9,100,0.00,,,-99.99,FreeWX 2.05,2013-12-10 12:05:00,
2013-12-10 12:10:00,45.7,45.7,30.44,SSE,156,1.0,4.9,100,0.00,,,-99.99,FreeWX 2.05,2013-12-10 12:10:00,
2013-12-10 12:20:00,46.2,46.2,30.44,North,-999,0.0,4.0,100,0.00,,,-99.99,FreeWX 2.05,2013-12-10 12:20:00,
2013-12-10 12:30:00,46.6,46.6,30.41,South,174,1.0,4.5,100,0.00,,,-99.99,FreeWX 2.05,2013-12-10 12:30:00,
2013-12-10 12:35:00,46.8,46.8,30.41,South,169,1.0,3.6,100,0.00,,,-99.99,FreeWX 2.05,2013-12-10 12:35:00,
2013-12-10 12:45:00,47.1,47.1,30.41,North,-999,0.0,4.0,100,0.00,,,-99.99,FreeWX 2.05,2013-12-10 12:45:00,
2013-12-10 12:50:00,47.3,47.3,30.41,North,-999,0.0,4.9,100,0.00,,,-99.99,FreeWX 2.05,2013-12-10 12:50:00,
2013-12-10 12:55:00,47.5,47.5,30.41,SSE,162,1.0,5.8,100,0.00,,,-99.99,FreeWX 2.05,2013-12-10 12:55:00,
2013-12-10 13:05:00,47.5,47.5,30.41,SSE,148,2.0,4.5,100,0.00,,,-99.99,FreeWX 2.05,2013-12-10 13:05:00,
2013-12-10 13:10:00,47.7,47.7,30.41,SSE,155,1.0,4.9,100,0.00,,,-99.99,FreeWX 2.05,2013-12-10 13:10:00,
2013-12-10 13:20:00,48.2,48.2,30.41,SSE,161,1.0,5.4,100,0.00,,,-99.99,FreeWX 2.05,2013-12-10 13:20:00,
2013-12-10 13:25:00,48.4,48.4,30.41,SSE,156,1.0,4.0,100,0.00,,,-99.99,FreeWX 2.05,2013-12-10 13:25:00,
2013-12-10 13:30:00,48.2,48.2,30.41,North,-999,0.0,4.0,100,0.00,,,-99.99,FreeWX 2.05,2013-12-10 13:30:00,
2013-12-10 13:35:00,48.2,48.2,30.41,SSE,148,1.0,4.9,100,0.00,,,-99.99,FreeWX 2.05,2013-12-10 13:35:00,
2013-12-10 13:40:00,48.2,48.2,30.41,SE,146,1.0,4.9,100,0.00,,,-99.99,FreeWX 2.05,2013-12-10 13:40:00,
2013-12-10 13:45:00,48.2,48.2,30.41,SSE,150,1.0,4.9,100,0.00,,,-99.99,FreeWX 2.05,2013-12-10 13:45:00,
2013-12-10 13:50:00,48.2,48.2,30.41,North,-999,0.0,3.6,100,0.00,,,-99.99,FreeWX 2.05,2013-12-10 13:50:00,
2013-12-10 14:00:00,48.4,48.4,30.41,North,-999,0.0,3.1,100,0.00,,,-99.99,FreeWX 2.05,2013-12-10 14:00:00,
2013-12-10 14:05:00,48.4,48.4,30.41,North,-999,0.0,0.0,100,0.00,,,-99.99,FreeWX 2.05,2013-12-10 14:05:00,
2013-12-10 14:15:00,48.6,48.6,30.41,North,-999,0.0,2.7,100,0.00,,,-99.99,FreeWX 2.05,2013-12-10 14:15:00,
2013-12-10 14:25:00,48.6,48.6,30.41,North,-999,0.0,3.1,100,0.00,,,-99.99,FreeWX 2.05,2013-12-10 14:25:00,
2013-12-10 14:35:00,48.4,48.4,30.41,North,-999,0.0,4.0,100,0.00,,,-99.99,FreeWX 2.05,2013-12-10 14:35:00,
2013-12-10 14:40:00,48.4,48.4,30.41,North,-999,0.0,4.5,100,0.00,,,-99.99,FreeWX 2.05,2013-12-10 14:40:00,
2013-12-10 14:50:00,48.4,47.5,30.41,North,-999,0.0,4.5,97,0.00,,,-99.99,FreeWX 2.05,2013-12-10 14:50:00,
2013-12-10 14:55:00,48.4,47.5,30.41,North,-999,0.0,4.5,97,0.00,,,-99.99,FreeWX 2.05,2013-12-10 14:55:00,
2013-12-10 15:05:00,48.2,47.3,30.41,SSE,159,1.0,5.4,97,0.00,,,-99.99,FreeWX 2.05,2013-12-10 15:05:00,
2013-12-10 15:15:00,48.2,47.1,30.44,North,-999,0.0,4.0,96,0.00,,,-99.99,FreeWX 2.05,2013-12-10 15:15:00,
2013-12-10 15:20:00,48.2,47.1,30.44,South,179,1.0,5.8,96,0.00,,,-99.99,FreeWX 2.05,2013-12-10 15:20:00,
2013-12-10 15:30:00,48.0,46.9,30.44,North,-999,0.0,4.0,96,0.00,,,-99.99,FreeWX 2.05,2013-12-10 15:30:00,
2013-12-10 15:40:00,48.0,46.6,30.44,North,-999,0.0,4.0,95,0.00,,,-99.99,FreeWX 2.05,2013-12-10 15:40:00,
2013-12-10 15:45:00,47.8,46.4,30.44,North,-999,0.0,3.6,95,0.00,,,-99.99,FreeWX 2.05,2013-12-10 15:45:00,
2013-12-10 15:55:00,47.8,46.4,30.44,North,-999,0.0,3.1,95,0.00,,,-99.99,FreeWX 2.05,2013-12-10 15:55:00,
2013-12-10 16:00:00,47.8,46.4,30.41,North,-999,0.0,2.7,95,0.00,,,-99.99,FreeWX 2.05,2013-12-10 16:00:00,
2013-12-10 16:10:00,47.7,46.2,30.41,North,-999,0.0,4.0,95,0.00,,,-99.99,FreeWX 2.05,2013-12-10 16:10:00,
2013-12-10 16:15:00,47.7,46.2,30.44,North,-999,0.0,3.1,95,0.00,,,-99.99,FreeWX 2.05,2013-12-10 16:15:00,
2013-12-10 16:25:00,47.7,46.0,30.44,North,-999,0.0,4.5,94,0.00,,,-99.99,FreeWX 2.05,2013-12-10 16:25:00,
2013-12-10 16:35:00,47.7,46.0,30.44,North,-999,0.0,3.6,94,0.00,,,-99.99,FreeWX 2.05,2013-12-10 16:35:00,
2013-12-10 16:45:00,47.5,45.9,30.41,North,-999,0.0,4.0,94,0.00,,,-99.99,FreeWX 2.05,2013-12-10 16:45:00,
2013-12-10 16:50:00,47.5,45.9,30.41,North,-999,0.0,0.0,94,0.00,,,-99.99,FreeWX 2.05,2013-12-10 16:50:00,
2013-12-10 17:00:00,47.3,45.7,30.41,North,-999,0.0,3.1,94,0.00,,,-99.99,FreeWX 2.05,2013-12-10 17:00:00,
2013-12-10 17:05:00,47.3,45.7,30.41,North,-999,0.0,2.7,94,0.00,,,-99.99,FreeWX 2.05,2013-12-10 17:05:00,
2013-12-10 17:10:00,47.1,45.5,30.41,North,-999,0.0,0.0,94,0.00,,,-99.99,FreeWX 2.05,2013-12-10 17:10:00,
2013-12-10 17:15:00,46.9,45.0,30.41,North,-999,0.0,3.6,93,0.00,,,-99.99,FreeWX 2.05,2013-12-10 17:15:00,
2013-12-10 17:20:00,46.9,45.0,30.41,North,-999,0.0,2.7,93,0.00,,,-99.99,FreeWX 2.05,2013-12-10 17:20:00,
2013-12-10 17:25:00,46.8,44.8,30.41,North,-999,0.0,3.6,93,0.00,,,-99.99,FreeWX 2.05,2013-12-10 17:25:00,
2013-12-10 17:30:00,46.6,44.6,30.41,North,-999,0.0,0.0,93,0.00,,,-99.99,FreeWX 2.05,2013-12-10 17:30:00,
2013-12-10 17:40:00,46.2,44.2,30.41,North,-999,0.0,3.1,93,0.00,,,-99.99,FreeWX 2.05,2013-12-10 17:40:00,
2013-12-10 17:45:00,46.0,44.1,30.44,North,-999,0.0,0.0,93,0.00,,,-99.99,FreeWX 2.05,2013-12-10 17:45:00,
2013-12-10 17:50:00,46.0,43.9,30.44,North,-999,0.0,0.0,92,0.00,,,-99.99,FreeWX 2.05,2013-12-10 17:50:00,
2013-12-10 17:55:00,45.9,43.7,30.44,North,-999,0.0,3.1,92,0.00,,,-99.99,FreeWX 2.05,2013-12-10 17:55:00,
2013-12-10 18:05:00,45.3,43.2,30.41,North,-999,0.0,0.0,92,0.00,,,-99.99,FreeWX 2.05,2013-12-10 18:05:00,
2013-12-10 18:12:00,45.1,43.0,30.44,North,-999,0.0,0.0,92,0.00,,,-99.99,FreeWX 2.05,2013-12-10 18:12:00,
2013-12-10 18:20:00,44.8,42.6,30.44,North,-999,0.0,0.0,92,0.00,,,-99.99,FreeWX 2.05,2013-12-10 18:20:00,
2013-12-10 18:25:00,44.6,42.4,30.44,North,-999,0.0,0.0,92,0.00,,,-99.99,FreeWX 2.05,2013-12-10 18:25:00,
2013-12-10 18:30:00,44.2,42.1,30.44,North,-999,0.0,0.0,92,0.00,,,-99.99,FreeWX 2.05,2013-12-10 18:30:00,
2013-12-10 18:40:00,43.9,41.7,30.44,North,-999,0.0,2.7,92,0.00,,,-99.99,FreeWX 2.05,2013-12-10 18:40:00,
2013-12-10 18:50:00,43.7,41.5,30.44,North,-999,0.0,0.0,92,0.00,,,-99.99,FreeWX 2.05,2013-12-10 18:50:00,
2013-12-10 19:00:00,43.5,41.4,30.44,North,-999,0.0,0.0,92,0.00,,,-99.99,FreeWX 2.05,2013-12-10 19:00:00,
2013-12-10 19:05:00,43.3,41.2,30.44,North,-999,0.0,0.0,92,0.00,,,-99.99,FreeWX 2.05,2013-12-10 19:05:00,
2013-12-10 19:12:00,43.3,41.2,30.44,North,-999,0.0,0.0,92,0.00,,,-99.99,FreeWX 2.05,2013-12-10 19:12:00,
2013-12-10 19:20:00,43.2,41.0,30.44,North,-999,0.0,0.0,92,0.00,,,-99.99,FreeWX 2.05,2013-12-10 19:20:00,
2013-12-10 19:30:00,42.8,40.6,30.44,North,-999,0.0,0.0,92,0.00,,,-99.99,FreeWX 2.05,2013-12-10 19:30:00,
2013-12-10 19:35:00,42.8,40.6,30.44,North,-999,0.0,0.0,92,0.00,,,-99.99,FreeWX 2.05,2013-12-10 19:35:00,
2013-12-10 19:45:00,42.4,40.3,30.44,North,-999,0.0,0.0,92,0.00,,,-99.99,FreeWX 2.05,2013-12-10 19:45:00,
2013-12-10 19:50:00,42.3,40.1,30.44,North,-999,0.0,0.0,92,0.00,,,-99.99,FreeWX 2.05,2013-12-10 19:50:00,
2013-12-10 19:55:00,41.9,39.7,30.44,North,-999,0.0,0.0,92,0.00,,,-99.99,FreeWX 2.05,2013-12-10 19:55:00,
2013-12-10 20:00:00,41.5,39.4,30.44,North,-999,0.0,0.0,92,0.00,,,-99.99,FreeWX 2.05,2013-12-10 20:00:00,
2013-12-10 20:10:00,41.0,38.8,30.44,North,-999,0.0,0.0,92,0.00,,,-99.99,FreeWX 2.05,2013-12-10 20:10:00,
2013-12-10 20:20:00,40.5,38.3,30.44,North,-999,0.0,0.0,92,0.00,,,-99.99,FreeWX 2.05,2013-12-10 20:20:00,
2013-12-10 20:25:00,39.9,37.8,30.44,North,-999,0.0,0.0,92,0.00,,,-99.99,FreeWX 2.05,2013-12-10 20:25:00,
2013-12-10 20:30:00,39.6,37.4,30.44,North,-999,0.0,0.0,92,0.00,,,-99.99,FreeWX 2.05,2013-12-10 20:30:00,
2013-12-10 20:40:00,39.0,36.9,30.44,North,-999,0.0,0.0,92,0.00,,,-99.99,FreeWX 2.05,2013-12-10 20:40:00,
2013-12-10 20:45:00,38.8,36.7,30.44,North,-999,0.0,0.0,92,0.00,,,-99.99,FreeWX 2.05,2013-12-10 20:45:00,
2013-12-10 20:55:00,38.5,36.3,30.44,North,-999,0.0,0.0,92,0.00,,,-99.99,FreeWX 2.05,2013-12-10 20:55:00,
2013-12-10 21:00:00,38.3,36.1,30.44,North,-999,0.0,0.0,92,0.00,,,-99.99,FreeWX 2.05,2013-12-10 21:00:00,
2013-12-10 21:05:00,38.3,36.5,30.44,North,-999,0.0,0.0,93,0.00,,,-99.99,FreeWX 2.05,2013-12-10 21:05:00,
2013-12-10 21:15:00,38.3,36.5,30.44,North,-999,0.0,0.0,93,0.00,,,-99.99,FreeWX 2.05,2013-12-10 21:15:00,
2013-12-10 21:20:00,38.3,36.1,30.44,North,-999,0.0,0.0,92,0.00,,,-99.99,FreeWX 2.05,2013-12-10 21:20:00,
2013-12-10 21:25:00,38.3,36.5,30.44,North,-999,0.0,0.0,93,0.00,,,-99.99,FreeWX 2.05,2013-12-10 21:25:00,
2013-12-10 21:30:00,38.1,36.3,30.44,North,-999,0.0,0.0,93,0.00,,,-99.99,FreeWX 2.05,2013-12-10 21:30:00,
2013-12-10 21:40:00,38.1,36.3,30.44,North,-999,0.0,0.0,93,0.00,,,-99.99,FreeWX 2.05,2013-12-10 21:40:00,
2013-12-10 21:45:00,37.9,36.1,30.44,North,-999,0.0,0.0,93,0.00,,,-99.99,FreeWX 2.05,2013-12-10 21:45:00,
2013-12-10 21:55:00,37.9,36.1,30.44,North,-999,0.0,0.0,93,0.00,,,-99.99,FreeWX 2.05,2013-12-10 21:55:00,
2013-12-10 22:00:00,37.9,36.1,30.44,North,-999,0.0,0.0,93,0.00,,,-99.99,FreeWX 2.05,2013-12-10 22:00:00,
2013-12-10 22:05:00,37.6,35.8,30.44,North,-999,0.0,0.0,93,0.00,,,-99.99,FreeWX 2.05,2013-12-10 22:05:00,
2013-12-10 22:15:00,37.4,35.6,30.44,North,-999,0.0,0.0,93,0.00,,,-99.99,FreeWX 2.05,2013-12-10 22:15:00,
2013-12-10 22:20:00,37.2,35.4,30.44,North,-999,0.0,0.0,93,0.00,,,-99.99,FreeWX 2.05,2013-12-10 22:20:00,
2013-12-10 22:25:00,36.9,35.1,30.44,North,-999,0.0,0.0,93,0.00,,,-99.99,FreeWX 2.05,2013-12-10 22:25:00,
2013-12-10 22:30:00,36.9,35.1,30.44,North,-999,0.0,0.0,93,0.00,,,-99.99,FreeWX 2.05,2013-12-10 22:30:00,
2013-12-10 22:40:00,36.9,35.1,30.44,North,-999,0.0,0.0,93,0.00,,,-99.99,FreeWX 2.05,2013-12-10 22:40:00,
2013-12-10 22:45:00,36.9,35.1,30.44,North,-999,0.0,0.0,93,0.00,,,-99.99,FreeWX 2.05,2013-12-10 22:45:00,
2013-12-10 22:50:00,36.9,35.1,30.44,North,-999,0.0,0.0,93,0.00,,,-99.99,FreeWX 2.05,2013-12-10 22:50:00,
2013-12-10 23:00:00,36.7,34.9,30.44,North,-999,0.0,0.0,93,0.00,,,-99.99,FreeWX 2.05,2013-12-10 23:00:00,
2013-12-10 23:10:00,36.1,34.3,30.44,North,-999,0.0,0.0,93,0.00,,,-99.99,FreeWX 2.05,2013-12-10 23:10:00,
2013-12-10 23:15:00,36.1,34.3,30.44,North,-999,0.0,0.0,93,0.00,,,-99.99,FreeWX 2.05,2013-12-10 23:15:00,
2013-12-10 23:20:00,35.8,34.0,30.44,North,-999,0.0,0.0,93,0.00,,,-99.99,FreeWX 2.05,2013-12-10 23:20:00,
2013-12-10 23:30:00,35.4,33.6,30.44,North,-999,0.0,0.0,93,0.00,,,-99.99,FreeWX 2.05,2013-12-10 23:30:00,
2013-12-10 23:35:00,35.4,33.6,30.44,North,-999,0.0,0.0,93,0.00,,,-99.99,FreeWX 2.05,2013-12-10 23:35:00,
2013-12-10 23:47:00,35.1,33.3,30.41,North,-999,0.0,0.0,93,0.00,,,-99.99,FreeWX 2.05,2013-12-10 23:47:00,
2013-12-10 23:55:00,35.1,33.3,30.41,North,-999,0.0,0.0,93,0.00,,,-99.99,FreeWX 2.05,2013-12-10 23:55:00,